sensor_id;sensor_type;location;lat;lon;timestamp;P1;durP1;ratioP1;P2;durP2;ratioP2
12222;SDS011;6174;49.058;8.524;2023-03-12T06:03:04;4.67;;;3.50;;
12222;SDS011;6174;49.058;8.524;2023-03-12T06:05:31;3.90;;;3.50;;
12222;SDS011;6174;49.058;8.524;2023-03-12T06:08:00;4.03;;;3.57;;
12222;SDS011;6174;49.058;8.524;2023-03-12T06:10:27;5.50;;;4.07;;
12222;SDS011;6174;49.058;8.524;2023-03-12T06:12:54;5.30;;;3.90;;
12222;SDS011;6174;49.058;8.524;2023-03-12T06:15:21;7.13;;;4.00;;
12222;SDS011;6174;49.058;8.524;2023-03-12T06:17:47;4.27;;;3.80;;
12222;SDS011;6174;49.058;8.524;2023-03-12T06:20:15;4.80;;;4.23;;
12222;SDS011;6174;49.058;8.524;2023-03-12T06:22:42;4.10;;;3.70;;
12222;SDS011;6174;49.058;8.524;2023-03-12T06:25:09;4.13;;;3.53;;
12222;SDS011;6174;49.058;8.524;2023-03-12T06:27:36;4.43;;;3.83;;
12222;SDS011;6174;49.058;8.524;2023-03-12T06:30:03;4.00;;;3.57;;
12222;SDS011;6174;49.058;8.524;2023-03-12T06:32:30;4.27;;;3.80;;
12222;SDS011;6174;49.058;8.524;2023-03-12T06:34:57;6.53;;;3.43;;
12222;SDS011;6174;49.058;8.524;2023-03-12T06:37:26;4.10;;;3.70;;
12222;SDS011;6174;49.058;8.524;2023-03-12T06:39:52;5.43;;;3.90;;
12222;SDS011;6174;49.058;8.524;2023-03-12T06:42:19;4.47;;;3.73;;
12222;SDS011;6174;49.058;8.524;2023-03-12T06:44:46;5.17;;;3.80;;
12222;SDS011;6174;49.058;8.524;2023-03-12T06:47:13;4.53;;;3.50;;
12222;SDS011;6174;49.058;8.524;2023-03-12T06:49:40;3.97;;;3.57;;
12222;SDS011;6174;49.058;8.524;2023-03-12T06:52:06;4.73;;;3.90;;
12222;SDS011;6174;49.058;8.524;2023-03-12T06:54:34;6.60;;;3.63;;
12222;SDS011;6174;49.058;8.524;2023-03-12T06:57:01;4.13;;;3.30;;
12222;SDS011;6174;49.058;8.524;2023-03-12T06:59:28;7.33;;;3.60;;
12222;SDS011;6174;49.058;8.524;2023-03-12T07:01:54;3.90;;;3.50;;
12222;SDS011;6174;49.058;8.524;2023-03-12T07:04:21;4.00;;;3.33;;
12222;SDS011;6174;49.058;8.524;2023-03-12T07:06:48;3.40;;;3.10;;
12222;SDS011;6174;49.058;8.524;2023-03-12T07:09:15;4.03;;;3.63;;
12222;SDS011;6174;49.058;8.524;2023-03-12T07:11:43;4.13;;;3.57;;
12222;SDS011;6174;49.058;8.524;2023-03-12T07:14:10;5.87;;;3.80;;
12222;SDS011;6174;49.058;8.524;2023-03-12T07:16:37;4.90;;;4.37;;
12222;SDS011;6174;49.058;8.524;2023-03-12T07:19:04;4.97;;;3.80;;
12222;SDS011;6174;49.058;8.524;2023-03-12T07:21:31;5.80;;;3.57;;
12222;SDS011;6174;49.058;8.524;2023-03-12T07:23:57;6.03;;;3.83;;
12222;SDS011;6174;49.058;8.524;2023-03-12T07:26:24;5.33;;;4.27;;
12222;SDS011;6174;49.058;8.524;2023-03-12T07:28:53;4.60;;;4.00;;
12222;SDS011;6174;49.058;8.524;2023-03-12T07:31:19;4.27;;;3.50;;
12222;SDS011;6174;49.058;8.524;2023-03-12T07:33:46;3.77;;;2.90;;
12222;SDS011;6174;49.058;8.524;2023-03-12T07:36:13;3.73;;;3.23;;
12222;SDS011;6174;49.058;8.524;2023-03-12T07:38:40;4.60;;;3.53;;
12222;SDS011;6174;49.058;8.524;2023-03-12T07:41:07;5.00;;;3.60;;
12222;SDS011;6174;49.058;8.524;2023-03-12T07:43:34;5.27;;;4.47;;
12222;SDS011;6174;49.058;8.524;2023-03-12T07:46:02;4.00;;;3.67;;
12222;SDS011;6174;49.058;8.524;2023-03-12T07:48:29;5.10;;;4.40;;
12222;SDS011;6174;49.058;8.524;2023-03-12T07:50:55;5.50;;;4.00;;
12222;SDS011;6174;49.058;8.524;2023-03-12T07:53:22;4.83;;;3.53;;
12222;SDS011;6174;49.058;8.524;2023-03-12T07:55:49;4.60;;;4.00;;
12222;SDS011;6174;49.058;8.524;2023-03-12T07:58:16;4.60;;;3.60;;
12222;SDS011;6174;49.058;8.524;2023-03-12T08:00:43;5.30;;;4.27;;
12222;SDS011;6174;49.058;8.524;2023-03-12T08:03:11;8.97;;;5.70;;
12222;SDS011;6174;49.058;8.524;2023-03-12T08:05:38;6.67;;;5.40;;
12222;SDS011;6174;49.058;8.524;2023-03-12T08:08:05;6.77;;;5.43;;
12222;SDS011;6174;49.058;8.524;2023-03-12T08:10:32;5.80;;;5.10;;
12222;SDS011;6174;49.058;8.524;2023-03-12T08:12:59;6.63;;;5.93;;
12222;SDS011;6174;49.058;8.524;2023-03-12T08:15:25;5.43;;;4.93;;
12222;SDS011;6174;49.058;8.524;2023-03-12T08:17:52;8.70;;;5.50;;
12222;SDS011;6174;49.058;8.524;2023-03-12T08:20:20;6.03;;;5.47;;
12222;SDS011;6174;49.058;8.524;2023-03-12T08:22:47;6.90;;;5.80;;
12222;SDS011;6174;49.058;8.524;2023-03-12T08:25:14;6.53;;;5.83;;
12222;SDS011;6174;49.058;8.524;2023-03-12T08:27:42;6.83;;;5.60;;
12222;SDS011;6174;49.058;8.524;2023-03-12T08:30:09;7.00;;;6.30;;
12222;SDS011;6174;49.058;8.524;2023-03-12T08:32:37;6.90;;;6.20;;
12222;SDS011;6174;49.058;8.524;2023-03-12T08:35:04;6.63;;;5.60;;
12222;SDS011;6174;49.058;8.524;2023-03-12T08:37:32;7.50;;;6.37;;
12222;SDS011;6174;49.058;8.524;2023-03-12T08:39:59;6.27;;;5.63;;
12222;SDS011;6174;49.058;8.524;2023-03-12T08:42:26;7.27;;;6.43;;
12222;SDS011;6174;49.058;8.524;2023-03-12T08:44:53;5.47;;;4.90;;
12222;SDS011;6174;49.058;8.524;2023-03-12T08:47:19;5.40;;;4.90;;
12222;SDS011;6174;49.058;8.524;2023-03-12T08:49:46;6.03;;;5.40;;
12222;SDS011;6174;49.058;8.524;2023-03-12T08:52:13;5.77;;;5.27;;
12222;SDS011;6174;49.058;8.524;2023-03-12T08:54:41;6.90;;;6.20;;
12222;SDS011;6174;49.058;8.524;2023-03-12T08:57:08;6.03;;;5.10;;
12222;SDS011;6174;49.058;8.524;2023-03-12T08:59:35;7.20;;;6.30;;
12222;SDS011;6174;49.058;8.524;2023-03-12T09:02:01;6.93;;;5.37;;
12222;SDS011;6174;49.058;8.524;2023-03-12T09:04:29;5.70;;;5.20;;
12222;SDS011;6174;49.058;8.524;2023-03-12T09:06:55;6.13;;;4.87;;
12222;SDS011;6174;49.058;8.524;2023-03-12T09:09:22;6.27;;;4.70;;
12222;SDS011;6174;49.058;8.524;2023-03-12T09:11:50;5.00;;;4.50;;
12222;SDS011;6174;49.058;8.524;2023-03-12T09:14:17;6.27;;;4.70;;
12222;SDS011;6174;49.058;8.524;2023-03-12T09:16:44;6.73;;;5.47;;
12222;SDS011;6174;49.058;8.524;2023-03-12T09:19:10;7.57;;;6.73;;
12222;SDS011;6174;49.058;8.524;2023-03-12T09:21:37;6.23;;;5.63;;
12222;SDS011;6174;49.058;8.524;2023-03-12T09:24:04;6.93;;;5.20;;
12222;SDS011;6174;49.058;8.524;2023-03-12T09:26:31;8.07;;;6.20;;
12222;SDS011;6174;49.058;8.524;2023-03-12T09:28:59;5.80;;;5.10;;
12222;SDS011;6174;49.058;8.524;2023-03-12T09:31:26;5.97;;;5.07;;
12222;SDS011;6174;49.058;8.524;2023-03-12T09:33:53;6.10;;;5.50;;
12222;SDS011;6174;49.058;8.524;2023-03-12T09:36:20;6.57;;;5.93;;
12222;SDS011;6174;49.058;8.524;2023-03-12T09:38:46;6.77;;;6.00;;
12222;SDS011;6174;49.058;8.524;2023-03-12T09:41:17;7.57;;;5.70;;
12222;SDS011;6174;49.058;8.524;2023-03-12T09:43:50;6.27;;;5.50;;
12222;SDS011;6174;49.058;8.524;2023-03-12T09:46:25;7.43;;;6.10;;
12222;SDS011;6174;49.058;8.524;2023-03-12T09:48:55;7.20;;;5.53;;
12222;SDS011;6174;49.058;8.524;2023-03-12T09:51:25;6.03;;;4.90;;
12222;SDS011;6174;49.058;8.524;2023-03-12T09:53:57;6.33;;;5.47;;
12222;SDS011;6174;49.058;8.524;2023-03-12T09:56:27;5.57;;;5.07;;
12222;SDS011;6174;49.058;8.524;2023-03-12T09:58:54;5.70;;;5.20;;
12222;SDS011;6174;49.058;8.524;2023-03-12T10:01:34;5.90;;;5.40;;
12222;SDS011;6174;49.058;8.524;2023-03-12T10:04:05;5.60;;;4.90;;
12222;SDS011;6174;49.058;8.524;2023-03-12T10:06:38;7.90;;;6.07;;
12222;SDS011;6174;49.058;8.524;2023-03-12T10:09:16;7.03;;;6.10;;
12222;SDS011;6174;49.058;8.524;2023-03-12T10:11:52;5.70;;;5.20;;
12222;SDS011;6174;49.058;8.524;2023-03-12T10:14:29;7.13;;;5.93;;
12222;SDS011;6174;49.058;8.524;2023-03-12T10:17:14;6.33;;;5.77;;
12222;SDS011;6174;49.058;8.524;2023-03-12T10:19:58;6.00;;;5.40;;
12222;SDS011;6174;49.058;8.524;2023-03-12T10:22:41;7.27;;;6.50;;
12222;SDS011;6174;49.058;8.524;2023-03-12T10:25:15;6.70;;;6.10;;
12222;SDS011;6174;49.058;8.524;2023-03-12T10:27:51;8.37;;;5.90;;
12222;SDS011;6174;49.058;8.524;2023-03-12T10:30:19;7.20;;;6.50;;
12222;SDS011;6174;49.058;8.524;2023-03-12T10:32:50;7.90;;;7.10;;
12222;SDS011;6174;49.058;8.524;2023-03-12T10:35:23;7.67;;;6.70;;
12222;SDS011;6174;49.058;8.524;2023-03-12T10:37:52;7.90;;;7.13;;
12222;SDS011;6174;49.058;8.524;2023-03-12T10:40:22;7.00;;;6.30;;
12222;SDS011;6174;49.058;8.524;2023-03-12T10:42:51;7.03;;;6.43;;
12222;SDS011;6174;49.058;8.524;2023-03-12T10:45:20;8.13;;;6.50;;
12222;SDS011;6174;49.058;8.524;2023-03-12T10:47:54;6.80;;;6.20;;
12222;SDS011;6174;49.058;8.524;2023-03-12T10:50:24;7.10;;;6.40;;
12222;SDS011;6174;49.058;8.524;2023-03-12T10:52:53;7.97;;;7.17;;
12222;SDS011;6174;49.058;8.524;2023-03-12T10:55:39;7.47;;;6.77;;
12222;SDS011;6174;49.058;8.524;2023-03-12T10:58:06;6.80;;;6.20;;
12222;SDS011;6174;49.058;8.524;2023-03-12T11:00:52;7.17;;;6.47;;
12222;SDS011;6174;49.058;8.524;2023-03-12T11:03:22;7.43;;;6.73;;
12222;SDS011;6174;49.058;8.524;2023-03-12T11:05:50;7.90;;;7.10;;
12222;SDS011;6174;49.058;8.524;2023-03-12T11:08:19;7.07;;;6.47;;
12222;SDS011;6174;49.058;8.524;2023-03-12T11:10:48;12.47;;;8.40;;
12222;SDS011;6174;49.058;8.524;2023-03-12T11:13:23;7.47;;;6.67;;
12222;SDS011;6174;49.058;8.524;2023-03-12T11:15:51;6.90;;;6.20;;
12222;SDS011;6174;49.058;8.524;2023-03-12T11:18:24;6.83;;;6.20;;
12222;SDS011;6174;49.058;8.524;2023-03-12T11:20:57;7.20;;;6.50;;
12222;SDS011;6174;49.058;8.524;2023-03-12T11:23:44;6.03;;;5.37;;
12222;SDS011;6174;49.058;8.524;2023-03-12T11:26:29;7.03;;;5.33;;
12222;SDS011;6174;49.058;8.524;2023-03-12T11:29:00;7.47;;;5.70;;
12222;SDS011;6174;49.058;8.524;2023-03-12T11:31:30;6.33;;;5.13;;
12222;SDS011;6174;49.058;8.524;2023-03-12T11:34:02;7.03;;;5.80;;
12222;SDS011;6174;49.058;8.524;2023-03-12T11:36:38;7.10;;;6.07;;
12222;SDS011;6174;49.058;8.524;2023-03-12T11:39:13;6.07;;;4.73;;
12222;SDS011;6174;49.058;8.524;2023-03-12T11:41:54;7.63;;;5.27;;
12222;SDS011;6174;49.058;8.524;2023-03-12T11:44:43;7.87;;;5.20;;
12222;SDS011;6174;49.058;8.524;2023-03-12T11:47:27;5.83;;;4.53;;
12222;SDS011;6174;49.058;8.524;2023-03-12T11:50:12;7.23;;;5.20;;
12222;SDS011;6174;49.058;8.524;2023-03-12T11:52:58;6.90;;;5.20;;
12222;SDS011;6174;49.058;8.524;2023-03-12T11:55:40;7.20;;;6.10;;
12222;SDS011;6174;49.058;8.524;2023-03-12T11:58:19;7.10;;;5.10;;
12222;SDS011;6174;49.058;8.524;2023-03-12T12:00:56;6.77;;;5.53;;
12222;SDS011;6174;49.058;8.524;2023-03-12T12:06:49;5.40;;;4.43;;
12222;SDS011;6174;49.058;8.524;2023-03-12T12:09:31;7.67;;;4.63;;
12222;SDS011;6174;49.058;8.524;2023-03-12T12:12:07;5.43;;;4.53;;
12222;SDS011;6174;49.058;8.524;2023-03-12T12:14:48;6.60;;;5.73;;
12222;SDS011;6174;49.058;8.524;2023-03-12T12:17:24;6.37;;;4.57;;
12222;SDS011;6174;49.058;8.524;2023-03-12T12:20:07;6.97;;;4.83;;
12222;SDS011;6174;49.058;8.524;2023-03-12T12:22:47;7.93;;;5.67;;
12222;SDS011;6174;49.058;8.524;2023-03-12T12:25:27;5.97;;;3.57;;
12222;SDS011;6174;49.058;8.524;2023-03-12T12:28:07;5.90;;;4.03;;
12222;SDS011;6174;49.058;8.524;2023-03-12T12:30:58;4.23;;;3.80;;
12222;SDS011;6174;49.058;8.524;2023-03-12T12:33:38;5.57;;;3.73;;
12222;SDS011;6174;49.058;8.524;2023-03-12T12:36:15;6.90;;;3.93;;
12222;SDS011;6174;49.058;8.524;2023-03-12T12:38:44;6.00;;;3.50;;
12222;SDS011;6174;49.058;8.524;2023-03-12T12:41:16;4.30;;;2.90;;
12222;SDS011;6174;49.058;8.524;2023-03-12T12:43:46;3.87;;;2.50;;
12222;SDS011;6174;49.058;8.524;2023-03-12T12:46:15;4.53;;;2.33;;
12222;SDS011;6174;49.058;8.524;2023-03-12T12:48:45;4.03;;;2.70;;
12222;SDS011;6174;49.058;8.524;2023-03-12T12:51:16;4.73;;;2.10;;
12222;SDS011;6174;49.058;8.524;2023-03-12T12:53:47;5.43;;;2.37;;
12222;SDS011;6174;49.058;8.524;2023-03-12T12:56:20;3.07;;;2.17;;
12222;SDS011;6174;49.058;8.524;2023-03-12T12:58:55;3.73;;;2.30;;
12222;SDS011;6174;49.058;8.524;2023-03-12T13:01:28;4.50;;;2.33;;
12222;SDS011;6174;49.058;8.524;2023-03-12T13:03:56;5.77;;;2.43;;
12222;SDS011;6174;49.058;8.524;2023-03-12T13:06:27;5.53;;;2.40;;
12222;SDS011;6174;49.058;8.524;2023-03-12T13:08:59;4.50;;;2.50;;
12222;SDS011;6174;49.058;8.524;2023-03-12T13:11:39;5.47;;;2.50;;
12222;SDS011;6174;49.058;8.524;2023-03-12T13:14:19;5.80;;;2.80;;
12222;SDS011;6174;49.058;8.524;2023-03-12T13:17:06;3.93;;;2.30;;
12222;SDS011;6174;49.058;8.524;2023-03-12T13:19:44;7.73;;;3.60;;
12222;SDS011;6174;49.058;8.524;2023-03-12T13:22:15;4.73;;;2.50;;
12222;SDS011;6174;49.058;8.524;2023-03-12T13:24:55;4.07;;;2.57;;
12222;SDS011;6174;49.058;8.524;2023-03-12T13:27:30;4.90;;;2.90;;
12222;SDS011;6174;49.058;8.524;2023-03-12T13:33:15;4.73;;;2.57;;
12222;SDS011;6174;49.058;8.524;2023-03-12T13:38:36;6.57;;;3.20;;
12222;SDS011;6174;49.058;8.524;2023-03-12T13:41:06;6.33;;;2.73;;
12222;SDS011;6174;49.058;8.524;2023-03-12T13:43:40;5.57;;;2.47;;
12222;SDS011;6174;49.058;8.524;2023-03-12T13:46:21;7.07;;;2.67;;
12222;SDS011;6174;49.058;8.524;2023-03-12T13:49:02;6.53;;;2.77;;
12222;SDS011;6174;49.058;8.524;2023-03-12T13:51:31;6.80;;;2.43;;
12222;SDS011;6174;49.058;8.524;2023-03-12T13:53:58;8.27;;;2.70;;
12222;SDS011;6174;49.058;8.524;2023-03-12T13:56:29;10.20;;;2.50;;
12222;SDS011;6174;49.058;8.524;2023-03-12T13:58:58;7.37;;;2.70;;
12222;SDS011;6174;49.058;8.524;2023-03-12T14:01:28;7.27;;;2.70;;
12222;SDS011;6174;49.058;8.524;2023-03-12T14:03:57;8.87;;;2.80;;
12222;SDS011;6174;49.058;8.524;2023-03-12T14:06:27;6.73;;;2.77;;
12222;SDS011;6174;49.058;8.524;2023-03-12T14:09:02;6.30;;;2.73;;
12222;SDS011;6174;49.058;8.524;2023-03-12T14:11:42;7.30;;;3.13;;
12222;SDS011;6174;49.058;8.524;2023-03-12T14:14:26;8.67;;;2.83;;
12222;SDS011;6174;49.058;8.524;2023-03-12T14:17:11;6.53;;;2.37;;
12222;SDS011;6174;49.058;8.524;2023-03-12T14:19:44;5.70;;;2.50;;
12222;SDS011;6174;49.058;8.524;2023-03-12T14:22:13;7.43;;;2.80;;
12222;SDS011;6174;49.058;8.524;2023-03-12T14:24:40;6.70;;;2.20;;
12222;SDS011;6174;49.058;8.524;2023-03-12T14:27:16;6.27;;;2.60;;
12222;SDS011;6174;49.058;8.524;2023-03-12T14:29:47;8.00;;;2.30;;
12222;SDS011;6174;49.058;8.524;2023-03-12T14:32:18;8.87;;;2.90;;
12222;SDS011;6174;49.058;8.524;2023-03-12T14:34:48;6.50;;;2.53;;
12222;SDS011;6174;49.058;8.524;2023-03-12T14:37:20;10.13;;;3.03;;
12222;SDS011;6174;49.058;8.524;2023-03-12T14:39:52;7.37;;;2.50;;
12222;SDS011;6174;49.058;8.524;2023-03-12T14:42:26;7.50;;;2.50;;
12222;SDS011;6174;49.058;8.524;2023-03-12T14:44:56;6.70;;;2.77;;
12222;SDS011;6174;49.058;8.524;2023-03-12T14:47:24;5.13;;;2.53;;
12222;SDS011;6174;49.058;8.524;2023-03-12T14:49:53;9.07;;;2.97;;
12222;SDS011;6174;49.058;8.524;2023-03-12T14:52:22;8.23;;;2.40;;
12222;SDS011;6174;49.058;8.524;2023-03-12T14:54:54;7.33;;;3.10;;
12222;SDS011;6174;49.058;8.524;2023-03-12T14:57:23;8.10;;;2.80;;
12222;SDS011;6174;49.058;8.524;2023-03-12T14:59:51;8.93;;;3.17;;
12222;SDS011;6174;49.058;8.524;2023-03-12T15:02:19;10.17;;;3.20;;
12222;SDS011;6174;49.058;8.524;2023-03-12T15:04:46;5.83;;;2.73;;
12222;SDS011;6174;49.058;8.524;2023-03-12T15:07:16;8.50;;;3.43;;
12222;SDS011;6174;49.058;8.524;2023-03-12T15:09:46;10.20;;;3.40;;
12222;SDS011;6174;49.058;8.524;2023-03-12T15:12:19;10.13;;;3.20;;
12222;SDS011;6174;49.058;8.524;2023-03-12T15:14:50;8.57;;;2.70;;
12222;SDS011;6174;49.058;8.524;2023-03-12T15:17:20;7.97;;;2.80;;
12222;SDS011;6174;49.058;8.524;2023-03-12T15:19:48;7.40;;;2.67;;
12222;SDS011;6174;49.058;8.524;2023-03-12T15:22:16;8.17;;;2.90;;
12222;SDS011;6174;49.058;8.524;2023-03-12T15:24:46;10.17;;;3.40;;
12222;SDS011;6174;49.058;8.524;2023-03-12T15:27:20;7.07;;;2.97;;
12222;SDS011;6174;49.058;8.524;2023-03-12T15:29:57;7.67;;;3.13;;
12222;SDS011;6174;49.058;8.524;2023-03-12T15:32:25;10.73;;;3.23;;
12222;SDS011;6174;49.058;8.524;2023-03-12T15:34:54;7.23;;;3.10;;
12222;SDS011;6174;49.058;8.524;2023-03-12T15:37:22;8.70;;;3.27;;
12222;SDS011;6174;49.058;8.524;2023-03-12T15:39:56;8.87;;;2.60;;
12222;SDS011;6174;49.058;8.524;2023-03-12T15:42:25;5.30;;;2.63;;
12222;SDS011;6174;49.058;8.524;2023-03-12T15:44:53;8.23;;;3.10;;
12222;SDS011;6174;49.058;8.524;2023-03-12T15:47:24;6.43;;;2.87;;
12222;SDS011;6174;49.058;8.524;2023-03-12T15:49:53;6.77;;;2.83;;
12222;SDS011;6174;49.058;8.524;2023-03-12T15:52:27;7.57;;;2.60;;
12222;SDS011;6174;49.058;8.524;2023-03-12T15:54:59;6.97;;;2.60;;
12222;SDS011;6174;49.058;8.524;2023-03-12T15:57:28;6.07;;;3.00;;
12222;SDS011;6174;49.058;8.524;2023-03-12T16:00:17;9.07;;;2.80;;
12222;SDS011;6174;49.058;8.524;2023-03-12T16:02:50;6.17;;;2.80;;
12222;SDS011;6174;49.058;8.524;2023-03-12T16:05:19;5.90;;;2.50;;
12222;SDS011;6174;49.058;8.524;2023-03-12T16:07:47;6.83;;;2.77;;
12222;SDS011;6174;49.058;8.524;2023-03-12T16:10:14;8.13;;;2.73;;
12222;SDS011;6174;49.058;8.524;2023-03-12T16:12:43;8.43;;;3.03;;
12222;SDS011;6174;49.058;8.524;2023-03-12T16:15:12;10.57;;;2.90;;
12222;SDS011;6174;49.058;8.524;2023-03-12T16:17:40;6.23;;;2.80;;
12222;SDS011;6174;49.058;8.524;2023-03-12T16:20:11;7.93;;;2.70;;
12222;SDS011;6174;49.058;8.524;2023-03-12T16:22:39;7.87;;;2.70;;
12222;SDS011;6174;49.058;8.524;2023-03-12T16:25:06;8.97;;;3.10;;
12222;SDS011;6174;49.058;8.524;2023-03-12T16:27:34;9.90;;;3.30;;
12222;SDS011;6174;49.058;8.524;2023-03-12T16:30:05;9.23;;;3.10;;
12222;SDS011;6174;49.058;8.524;2023-03-12T16:32:36;7.47;;;3.17;;
12222;SDS011;6174;49.058;8.524;2023-03-12T16:35:07;7.10;;;2.60;;
12222;SDS011;6174;49.058;8.524;2023-03-12T16:37:38;7.77;;;2.80;;
12222;SDS011;6174;49.058;8.524;2023-03-12T16:40:06;6.90;;;3.30;;
12222;SDS011;6174;49.058;8.524;2023-03-12T16:42:33;8.47;;;3.27;;
12222;SDS011;6174;49.058;8.524;2023-03-12T16:45:01;7.73;;;2.67;;
12222;SDS011;6174;49.058;8.524;2023-03-12T16:47:29;9.67;;;2.83;;
12222;SDS011;6174;49.058;8.524;2023-03-12T16:49:56;8.13;;;2.90;;
12222;SDS011;6174;49.058;8.524;2023-03-12T16:52:24;6.70;;;2.77;;
12222;SDS011;6174;49.058;8.524;2023-03-12T16:54:51;8.40;;;2.87;;
12222;SDS011;6174;49.058;8.524;2023-03-12T16:57:19;9.43;;;3.10;;
12222;SDS011;6174;49.058;8.524;2023-03-12T16:59:50;4.63;;;2.50;;
12222;SDS011;6174;49.058;8.524;2023-03-12T17:02:17;7.57;;;2.37;;
12222;SDS011;6174;49.058;8.524;2023-03-12T17:04:45;8.67;;;3.00;;
12222;SDS011;6174;49.058;8.524;2023-03-12T17:07:13;8.80;;;3.00;;
12222;SDS011;6174;49.058;8.524;2023-03-12T17:09:41;10.07;;;4.33;;
12222;SDS011;6174;49.058;8.524;2023-03-12T17:12:09;8.60;;;3.70;;
12222;SDS011;6174;49.058;8.524;2023-03-12T17:14:43;6.77;;;3.00;;
12222;SDS011;6174;49.058;8.524;2023-03-12T17:17:10;8.43;;;3.17;;
12222;SDS011;6174;49.058;8.524;2023-03-12T17:19:36;8.17;;;3.13;;
12222;SDS011;6174;49.058;8.524;2023-03-12T17:22:03;8.27;;;2.80;;
12222;SDS011;6174;49.058;8.524;2023-03-12T17:24:30;7.27;;;2.73;;
12222;SDS011;6174;49.058;8.524;2023-03-12T17:26:58;7.77;;;2.93;;
12222;SDS011;6174;49.058;8.524;2023-03-12T17:29:24;8.17;;;2.60;;
12222;SDS011;6174;49.058;8.524;2023-03-12T17:31:51;7.13;;;2.73;;
12222;SDS011;6174;49.058;8.524;2023-03-12T17:34:18;7.50;;;2.87;;
12222;SDS011;6174;49.058;8.524;2023-03-12T17:36:45;6.87;;;2.87;;
12222;SDS011;6174;49.058;8.524;2023-03-12T17:39:11;7.87;;;2.93;;
12222;SDS011;6174;49.058;8.524;2023-03-12T17:41:38;9.50;;;3.37;;
12222;SDS011;6174;49.058;8.524;2023-03-12T17:44:07;8.33;;;3.80;;
12222;SDS011;6174;49.058;8.524;2023-03-12T17:46:35;6.90;;;2.80;;
12222;SDS011;6174;49.058;8.524;2023-03-12T17:49:03;6.53;;;3.70;;
12222;SDS011;6174;49.058;8.524;2023-03-12T17:51:30;9.60;;;3.67;;
12222;SDS011;6174;49.058;8.524;2023-03-12T17:53:57;8.50;;;3.77;;
12222;SDS011;6174;49.058;8.524;2023-03-12T17:56:23;11.07;;;5.53;;
12222;SDS011;6174;49.058;8.524;2023-03-12T17:58:50;9.93;;;4.00;;
12222;SDS011;6174;49.058;8.524;2023-03-12T18:01:18;9.60;;;3.57;;
12222;SDS011;6174;49.058;8.524;2023-03-12T18:03:45;15.93;;;6.80;;
12222;SDS011;6174;49.058;8.524;2023-03-12T18:06:14;12.03;;;4.73;;
12222;SDS011;6174;49.058;8.524;2023-03-12T18:08:40;11.57;;;3.97;;
12222;SDS011;6174;49.058;8.524;2023-03-12T18:11:07;11.33;;;5.03;;
12222;SDS011;6174;49.058;8.524;2023-03-12T18:13:34;9.47;;;4.00;;
12222;SDS011;6174;49.058;8.524;2023-03-12T18:16:01;8.27;;;3.47;;
12222;SDS011;6174;49.058;8.524;2023-03-12T18:18:29;9.57;;;3.80;;
12222;SDS011;6174;49.058;8.524;2023-03-12T18:20:55;12.40;;;3.47;;
12222;SDS011;6174;49.058;8.524;2023-03-12T18:23:22;7.63;;;2.70;;
12222;SDS011;6174;49.058;8.524;2023-03-12T18:25:49;7.23;;;3.23;;
12222;SDS011;6174;49.058;8.524;2023-03-12T18:28:16;7.93;;;3.43;;
12222;SDS011;6174;49.058;8.524;2023-03-12T18:30:43;9.63;;;3.60;;
12222;SDS011;6174;49.058;8.524;2023-03-12T18:33:11;8.13;;;3.23;;
12222;SDS011;6174;49.058;8.524;2023-03-12T18:35:39;9.40;;;3.60;;
12222;SDS011;6174;49.058;8.524;2023-03-12T18:38:07;8.33;;;3.03;;
12222;SDS011;6174;49.058;8.524;2023-03-12T18:40:34;9.47;;;3.70;;
12222;SDS011;6174;49.058;8.524;2023-03-12T18:43:01;8.33;;;3.30;;
12222;SDS011;6174;49.058;8.524;2023-03-12T18:45:28;9.37;;;3.30;;
12222;SDS011;6174;49.058;8.524;2023-03-12T18:47:55;11.23;;;3.90;;
12222;SDS011;6174;49.058;8.524;2023-03-12T18:50:22;9.67;;;4.40;;
12222;SDS011;6174;49.058;8.524;2023-03-12T18:52:50;8.63;;;4.17;;
12222;SDS011;6174;49.058;8.524;2023-03-12T18:55:16;12.67;;;5.03;;
12222;SDS011;6174;49.058;8.524;2023-03-12T18:57:43;9.13;;;4.80;;
12222;SDS011;6174;49.058;8.524;2023-03-12T19:00:12;10.23;;;4.53;;
12222;SDS011;6174;49.058;8.524;2023-03-12T19:02:41;8.67;;;4.13;;
12222;SDS011;6174;49.058;8.524;2023-03-12T19:05:08;10.13;;;5.00;;
12222;SDS011;6174;49.058;8.524;2023-03-12T19:07:36;10.33;;;4.67;;
12222;SDS011;6174;49.058;8.524;2023-03-12T19:10:04;9.73;;;4.13;;
12222;SDS011;6174;49.058;8.524;2023-03-12T19:12:32;8.33;;;4.23;;
12222;SDS011;6174;49.058;8.524;2023-03-12T19:14:59;10.07;;;4.30;;
12222;SDS011;6174;49.058;8.524;2023-03-12T19:17:26;10.77;;;5.20;;
12222;SDS011;6174;49.058;8.524;2023-03-12T19:19:53;12.03;;;5.37;;
12222;SDS011;6174;49.058;8.524;2023-03-12T19:22:20;10.17;;;5.30;;
12222;SDS011;6174;49.058;8.524;2023-03-12T19:24:47;10.53;;;5.03;;
12222;SDS011;6174;49.058;8.524;2023-03-12T19:27:15;10.23;;;5.00;;
12222;SDS011;6174;49.058;8.524;2023-03-12T19:29:42;9.57;;;4.70;;
12222;SDS011;6174;49.058;8.524;2023-03-12T19:32:09;8.87;;;5.40;;
12222;SDS011;6174;49.058;8.524;2023-03-12T19:34:36;10.90;;;5.80;;
12222;SDS011;6174;49.058;8.524;2023-03-12T19:37:02;10.47;;;5.90;;
12222;SDS011;6174;49.058;8.524;2023-03-12T19:39:29;10.67;;;6.17;;
12222;SDS011;6174;49.058;8.524;2023-03-12T19:41:56;15.23;;;8.43;;
12222;SDS011;6174;49.058;8.524;2023-03-12T19:44:24;15.37;;;9.20;;
12222;SDS011;6174;49.058;8.524;2023-03-12T19:46:51;11.73;;;8.63;;
12222;SDS011;6174;49.058;8.524;2023-03-12T19:49:18;12.57;;;8.33;;
12222;SDS011;6174;49.058;8.524;2023-03-12T19:51:45;12.80;;;8.60;;
12222;SDS011;6174;49.058;8.524;2023-03-12T19:54:11;14.33;;;8.43;;
12222;SDS011;6174;49.058;8.524;2023-03-12T19:56:38;13.77;;;8.30;;
12222;SDS011;6174;49.058;8.524;2023-03-12T19:59:05;14.23;;;9.40;;
12222;SDS011;6174;49.058;8.524;2023-03-12T20:01:33;11.40;;;8.53;;
12222;SDS011;6174;49.058;8.524;2023-03-12T20:04:02;12.90;;;8.50;;
12222;SDS011;6174;49.058;8.524;2023-03-12T20:06:31;13.37;;;8.47;;
12222;SDS011;6174;49.058;8.524;2023-03-12T20:08:58;13.93;;;8.20;;
12222;SDS011;6174;49.058;8.524;2023-03-12T20:11:25;12.17;;;6.90;;
12222;SDS011;6174;49.058;8.524;2023-03-12T20:13:52;12.17;;;7.47;;
12222;SDS011;6174;49.058;8.524;2023-03-12T20:16:18;11.70;;;7.80;;
12222;SDS011;6174;49.058;8.524;2023-03-12T20:18:46;11.30;;;6.87;;
12222;SDS011;6174;49.058;8.524;2023-03-12T20:21:13;12.07;;;6.63;;
12222;SDS011;6174;49.058;8.524;2023-03-12T20:23:40;11.40;;;5.57;;
12222;SDS011;6174;49.058;8.524;2023-03-12T20:26:06;9.57;;;5.40;;
12222;SDS011;6174;49.058;8.524;2023-03-12T20:28:33;8.77;;;4.93;;
12222;SDS011;6174;49.058;8.524;2023-03-12T20:31:05;9.30;;;5.47;;
12222;SDS011;6174;49.058;8.524;2023-03-12T20:33:33;9.37;;;5.57;;
12222;SDS011;6174;49.058;8.524;2023-03-12T20:36:04;9.90;;;5.13;;
12222;SDS011;6174;49.058;8.524;2023-03-12T20:38:31;8.93;;;5.23;;
12222;SDS011;6174;49.058;8.524;2023-03-12T20:40:57;8.17;;;5.23;;
12222;SDS011;6174;49.058;8.524;2023-03-12T20:43:24;7.90;;;4.47;;
12222;SDS011;6174;49.058;8.524;2023-03-12T20:45:51;9.27;;;4.40;;
12222;SDS011;6174;49.058;8.524;2023-03-12T20:48:18;7.83;;;4.27;;
12222;SDS011;6174;49.058;8.524;2023-03-12T20:50:47;8.90;;;4.63;;
12222;SDS011;6174;49.058;8.524;2023-03-12T20:53:16;9.27;;;5.17;;
12222;SDS011;6174;49.058;8.524;2023-03-12T20:55:43;9.70;;;4.57;;
12222;SDS011;6174;49.058;8.524;2023-03-12T20:58:09;7.87;;;4.60;;
12222;SDS011;6174;49.058;8.524;2023-03-12T21:00:36;9.10;;;4.63;;
12222;SDS011;6174;49.058;8.524;2023-03-12T21:03:03;5.57;;;3.87;;
12222;SDS011;6174;49.058;8.524;2023-03-12T21:05:30;10.87;;;4.67;;
12222;SDS011;6174;49.058;8.524;2023-03-12T21:07:57;8.10;;;4.33;;
12222;SDS011;6174;49.058;8.524;2023-03-12T21:10:25;5.70;;;3.77;;
12222;SDS011;6174;49.058;8.524;2023-03-12T21:12:51;7.90;;;4.10;;
12222;SDS011;6174;49.058;8.524;2023-03-12T21:15:18;8.33;;;4.07;;
12222;SDS011;6174;49.058;8.524;2023-03-12T21:17:45;10.97;;;3.93;;
12222;SDS011;6174;49.058;8.524;2023-03-12T21:20:12;7.47;;;3.67;;
12222;SDS011;6174;49.058;8.524;2023-03-12T21:22:41;7.30;;;3.40;;
12222;SDS011;6174;49.058;8.524;2023-03-12T21:25:08;7.93;;;2.90;;
12222;SDS011;6174;49.058;8.524;2023-03-12T21:27:38;7.90;;;3.17;;